Terminal Aerodrome Forecast
Issued by NWS

Home | Current Version | Previous Version | Text Only | Print | Product List | Glossary On
Versions: 1 2 3 4 5 6 7 8 9 10 11 12 13 14 15 16 17 18 19 20 21 22 23 24
771
FTUS42 KJAX 261120
TAFVQQ
TAF
KVQQ 261120Z 2612/2712 24004KT P6SM SCT025 SCT200
     FM262000 18008KT P6SM VCTS BKN045CB BKN200
      TEMPO 2620/2624 VRB15G30KT 3SM +TSRA BR SCT025 BKN040CB BKN120
     FM270100 09003KT P6SM VCSH BKN050 BKN100 OVC200=

USA.gov is the U.S. government's official web portal to all federal, state and local government web resources and services.